createdAt,value
2019-03-19T00:01:16.410Z,23.90
2019-03-19T00:03:48.645Z,28.10
2019-03-19T00:06:21.057Z,25.47
2019-03-19T00:08:53.335Z,25.60
2019-03-19T00:11:25.552Z,24.57
2019-03-19T00:13:57.812Z,21.30
2019-03-19T00:16:30.052Z,22.43
2019-03-19T00:19:02.316Z,30.53
2019-03-19T00:21:34.518Z,21.43
2019-03-19T00:24:06.777Z,19.07
2019-03-19T00:26:39.340Z,28.73
2019-03-19T00:29:11.645Z,27.70
2019-03-19T00:31:43.953Z,20.33
2019-03-19T00:34:16.221Z,26.43
2019-03-19T00:36:48.419Z,22.30
2019-03-19T00:39:20.661Z,14.43
2019-03-19T00:41:53.051Z,23.30
2019-03-19T00:44:26.155Z,18.93
2019-03-19T00:46:58.385Z,20.23
2019-03-19T00:49:30.644Z,24.53
2019-03-19T00:52:02.930Z,20.07
2019-03-19T00:54:37.435Z,20.27
2019-03-19T00:57:09.697Z,26.13
2019-03-19T00:59:42.051Z,22.43
2019-03-19T01:02:14.304Z,23.67
2019-03-19T01:04:46.529Z,28.80
2019-03-19T01:07:18.800Z,24.20
2019-03-19T01:09:51.131Z,19.23
2019-03-19T01:12:23.364Z,21.40
2019-03-19T01:14:55.599Z,24.47
2019-03-19T01:17:27.940Z,22.63
2019-03-19T01:20:00.382Z,26.20
2019-03-19T01:22:35.029Z,19.80
2019-03-19T01:25:07.020Z,26.47
2019-03-19T01:27:39.265Z,30.60
2019-03-19T01:30:11.541Z,26.13
2019-03-19T01:32:43.871Z,27.07
2019-03-19T01:35:16.104Z,24.43
2019-03-19T01:37:48.314Z,20.13
2019-03-19T01:40:20.645Z,19.90
2019-03-19T01:42:53.054Z,18.93
2019-03-19T01:45:25.521Z,19.20
2019-03-19T01:47:57.723Z,18.23
2019-03-19T01:50:29.939Z,18.00
2019-03-19T01:53:02.190Z,23.83
2019-03-19T01:55:36.047Z,21.57
2019-03-19T01:58:08.318Z,21.77
2019-03-19T02:00:42.354Z,14.90
2019-03-19T02:03:14.641Z,15.57
2019-03-19T02:05:46.872Z,18.37
2019-03-19T02:08:19.160Z,20.23
2019-03-19T02:10:51.476Z,14.63
2019-03-19T02:13:23.777Z,18.00
2019-03-19T02:15:55.977Z,21.47
2019-03-19T02:18:28.196Z,23.87
2019-03-19T02:21:00.482Z,14.80
2019-03-19T02:23:32.793Z,17.57
2019-03-19T02:26:15.558Z,19.77
2019-03-19T02:28:39.029Z,19.63
2019-03-19T02:31:12.391Z,14.70
2019-03-19T02:33:44.621Z,19.47
2019-03-19T02:36:16.938Z,23.07
2019-03-19T02:38:49.390Z,16.77
2019-03-19T02:41:22.673Z,14.93
2019-03-19T02:43:55.116Z,19.60
2019-03-19T02:46:27.358Z,20.73
2019-03-19T02:48:59.605Z,22.93
2019-03-19T02:51:31.952Z,20.07
2019-03-19T02:54:04.341Z,19.90
2019-03-19T02:56:36.695Z,18.47
2019-03-19T02:59:08.911Z,15.53
2019-03-19T03:01:41.138Z,18.13
2019-03-19T03:04:13.435Z,22.17
2019-03-19T03:06:45.544Z,18.87
2019-03-19T03:09:17.801Z,19.90
2019-03-19T03:11:50.090Z,20.83
2019-03-19T03:14:22.508Z,17.60
2019-03-19T03:16:54.759Z,14.33
2019-03-19T03:19:29.076Z,16.70
2019-03-19T03:22:02.465Z,17.03
2019-03-19T03:24:34.662Z,16.10
2019-03-19T03:27:06.913Z,14.37
2019-03-19T03:29:38.997Z,17.60
2019-03-19T03:32:11.235Z,14.27
2019-03-19T03:34:43.559Z,16.97
2019-03-19T03:37:15.761Z,15.53
2019-03-19T03:39:48.109Z,14.47
2019-03-19T03:42:20.372Z,14.70
2019-03-19T03:44:52.682Z,15.67
2019-03-19T03:47:24.998Z,14.60
2019-03-19T03:49:57.472Z,18.00
2019-03-19T03:52:30.803Z,14.90
2019-03-19T03:55:03.014Z,16.50
2019-03-19T03:57:35.381Z,14.10
2019-03-19T04:00:07.639Z,16.87
2019-03-19T04:02:39.924Z,15.47
2019-03-19T04:05:12.234Z,17.37
2019-03-19T04:07:44.540Z,19.63
2019-03-19T04:10:16.957Z,18.27
2019-03-19T04:12:49.214Z,17.33
2019-03-19T04:15:21.454Z,20.37
2019-03-19T04:17:53.887Z,13.83
2019-03-19T04:20:26.121Z,15.20
2019-03-19T04:22:58.423Z,21.03
2019-03-19T04:25:30.631Z,13.00
2019-03-19T04:28:02.901Z,18.30
2019-03-19T04:30:35.322Z,12.30
2019-03-19T04:33:07.588Z,12.03
2019-03-19T04:35:42.092Z,17.50
2019-03-19T04:38:14.077Z,16.93
2019-03-19T04:40:46.307Z,22.07
2019-03-19T04:43:18.607Z,15.80
2019-03-19T04:45:50.841Z,16.07
2019-03-19T04:48:25.256Z,23.30
2019-03-19T04:50:58.601Z,19.23
2019-03-19T04:53:30.854Z,15.77
2019-03-19T04:56:03.120Z,19.03
2019-03-19T04:58:35.618Z,16.47
2019-03-19T05:01:07.890Z,23.60
2019-03-19T05:03:40.138Z,16.50
2019-03-19T05:06:12.591Z,19.30
2019-03-19T05:08:44.904Z,18.97
2019-03-19T05:11:17.154Z,15.90
2019-03-19T05:13:49.399Z,10.67
2019-03-19T05:16:21.644Z,20.37
2019-03-19T05:18:54.995Z,16.67
2019-03-19T05:21:27.748Z,19.93
2019-03-19T05:24:00.248Z,16.63
2019-03-19T05:26:34.852Z,21.47
2019-03-19T05:29:07.274Z,16.47
2019-03-19T05:31:39.589Z,14.93
2019-03-19T05:34:11.783Z,15.83
2019-03-19T05:36:44.037Z,17.47
2019-03-19T05:39:16.526Z,17.60
2019-03-19T05:41:48.749Z,17.43
2019-03-19T05:44:21.047Z,17.50
2019-03-19T05:46:53.591Z,18.93
2019-03-19T05:49:25.887Z,16.57
2019-03-19T05:51:58.105Z,16.27
2019-03-19T05:54:30.414Z,15.73
2019-03-19T05:57:03.839Z,18.77
2019-03-19T05:59:36.130Z,17.67
2019-03-19T06:02:08.414Z,15.70
2019-03-19T06:04:40.690Z,15.50
2019-03-19T06:07:13.044Z,14.23
2019-03-19T06:09:45.427Z,20.80
2019-03-19T06:12:17.714Z,19.73
2019-03-19T06:14:50.051Z,15.20
2019-03-19T06:17:22.448Z,15.80
2019-03-19T06:19:54.658Z,18.13
2019-03-19T06:22:27.065Z,19.30
2019-03-19T06:24:59.662Z,21.10
2019-03-19T06:27:32.021Z,20.57
2019-03-19T06:30:04.591Z,19.40
2019-03-19T06:32:37.197Z,22.30
2019-03-19T06:35:09.645Z,19.00
2019-03-19T06:37:42.148Z,15.10
2019-03-19T06:40:14.873Z,26.13
2019-03-19T06:42:50.407Z,17.43
2019-03-19T06:45:23.272Z,18.60
2019-03-19T06:47:55.917Z,18.13
2019-03-19T06:50:28.426Z,18.60
2019-03-19T06:53:00.722Z,25.50
2019-03-19T06:55:33.713Z,18.10
2019-03-19T06:58:10.934Z,15.37
2019-03-19T07:00:40.564Z,13.83
2019-03-19T07:03:12.947Z,16.80
2019-03-19T07:05:45.330Z,19.03
2019-03-19T07:08:17.639Z,14.00
2019-03-19T07:10:50.082Z,24.70
2019-03-19T07:13:22.392Z,20.57
2019-03-19T07:15:56.956Z,16.30
2019-03-19T07:18:29.218Z,19.90
2019-03-19T07:21:01.352Z,21.77
2019-03-19T07:23:33.607Z,24.30
2019-03-19T07:26:05.881Z,18.87
2019-03-19T07:28:38.644Z,19.47
2019-03-19T07:31:11.716Z,22.63
2019-03-19T07:33:44.015Z,24.00
2019-03-19T07:36:16.348Z,17.83
2019-03-19T07:38:48.632Z,21.90
2019-03-19T07:41:20.867Z,19.77
2019-03-19T07:43:53.103Z,19.67
2019-03-19T07:46:25.424Z,24.97
2019-03-19T07:48:58.928Z,22.53
2019-03-19T07:51:31.522Z,25.10
2019-03-19T07:54:03.937Z,28.07
2019-03-19T07:56:36.277Z,20.67
2019-03-19T07:59:08.624Z,25.33
2019-03-19T08:01:41.073Z,20.90
2019-03-19T08:04:13.560Z,24.23
2019-03-19T08:06:46.034Z,25.83
2019-03-19T08:09:18.349Z,28.70
2019-03-19T08:11:50.540Z,31.03
2019-03-19T08:14:22.963Z,24.67
2019-03-19T08:16:55.218Z,25.83
2019-03-19T08:19:28.296Z,26.87
2019-03-19T08:22:00.507Z,30.63
2019-03-19T08:24:32.809Z,28.70
2019-03-19T08:27:05.091Z,32.67
2019-03-19T08:29:37.859Z,34.33
2019-03-19T08:32:10.138Z,30.67
2019-03-19T08:34:42.368Z,36.13
2019-03-19T08:37:15.648Z,30.60
2019-03-19T08:39:47.914Z,29.53
2019-03-19T08:42:20.162Z,29.57
2019-03-19T08:44:52.542Z,34.23
2019-03-19T08:47:24.943Z,41.23
2019-03-19T08:49:57.392Z,36.43
2019-03-19T08:52:29.708Z,34.33
2019-03-19T08:55:01.956Z,36.70
2019-03-19T08:57:34.562Z,38.40
2019-03-19T09:00:06.887Z,36.90
2019-03-19T09:02:40.317Z,45.97
2019-03-19T09:05:12.751Z,35.60
2019-03-19T09:07:45.107Z,39.00
2019-03-19T09:10:17.313Z,45.57
2019-03-19T09:12:49.546Z,40.93
2019-03-19T09:15:21.922Z,41.53
2019-03-19T09:17:54.214Z,43.50
2019-03-19T09:20:26.473Z,44.50
2019-03-19T09:22:58.744Z,45.03
2019-03-19T09:25:31.063Z,38.50
2019-03-19T09:28:03.381Z,40.17
2019-03-19T09:30:36.055Z,39.07
2019-03-19T09:33:09.455Z,39.83
2019-03-19T09:35:41.784Z,44.83
2019-03-19T09:38:14.484Z,42.20
2019-03-19T09:40:48.050Z,47.07
2019-03-19T09:43:20.435Z,43.33
2019-03-19T09:45:52.663Z,48.23
2019-03-19T09:48:24.915Z,43.97
2019-03-19T09:50:57.209Z,39.73
2019-03-19T09:53:29.505Z,43.67
2019-03-19T09:56:01.744Z,43.07
2019-03-19T09:58:34.381Z,45.30
2019-03-19T10:01:06.735Z,47.90
2019-03-19T10:03:39.053Z,44.67
2019-03-19T10:06:14.389Z,53.13
2019-03-19T10:08:45.454Z,53.90
2019-03-19T10:11:17.724Z,51.07
2019-03-19T10:13:50.034Z,52.90
2019-03-19T10:16:22.354Z,56.17
2019-03-19T10:18:54.558Z,49.97
2019-03-19T10:21:26.826Z,60.83
2019-03-19T10:23:58.949Z,58.43
2019-03-19T10:26:31.288Z,55.03
2019-03-19T10:29:03.703Z,58.30
2019-03-19T10:31:35.870Z,51.53
2019-03-19T10:34:08.140Z,50.97
2019-03-19T10:36:40.422Z,54.53
2019-03-19T10:39:12.528Z,38.17
2019-03-19T10:41:44.847Z,45.03
2019-03-19T10:44:17.217Z,31.23
2019-03-19T10:46:49.478Z,27.80
2019-03-19T10:49:21.742Z,32.93
2019-03-19T10:51:54.005Z,43.00
2019-03-19T10:54:26.311Z,39.50
2019-03-19T10:56:58.589Z,37.30
2019-03-19T10:59:30.943Z,40.27
2019-03-19T11:02:03.241Z,39.30
2019-03-19T11:04:37.875Z,39.53
2019-03-19T11:07:10.133Z,31.57
2019-03-19T11:09:42.586Z,43.43
2019-03-19T11:12:14.692Z,41.30
2019-03-19T11:14:47.302Z,38.90
2019-03-19T11:17:19.632Z,40.17
2019-03-19T11:19:51.876Z,39.43
2019-03-19T11:22:24.027Z,28.13
2019-03-19T11:24:56.254Z,34.07
2019-03-19T11:27:28.655Z,27.70
2019-03-19T11:30:00.991Z,25.17
2019-03-19T11:32:34.598Z,29.77
2019-03-19T11:35:06.990Z,32.03
2019-03-19T11:37:39.224Z,25.17
2019-03-19T11:40:11.469Z,21.30
2019-03-19T11:42:43.582Z,24.50
2019-03-19T11:45:16.006Z,21.63
2019-03-19T11:47:48.292Z,21.70
2019-03-19T11:50:20.640Z,17.10
2019-03-19T11:52:52.957Z,23.07
2019-03-19T11:55:25.279Z,16.13
2019-03-19T11:57:57.990Z,19.90
2019-03-19T12:00:30.488Z,16.63
2019-03-19T12:03:12.177Z,17.97
2019-03-19T12:05:36.764Z,18.13
2019-03-19T12:08:09.003Z,13.80
2019-03-19T12:10:41.418Z,18.57
2019-03-19T12:13:13.777Z,14.90
2019-03-19T12:15:46.263Z,16.47
2019-03-19T12:18:18.431Z,16.73
2019-03-19T12:20:50.681Z,13.20
2019-03-19T12:23:23.102Z,14.50
2019-03-19T12:25:55.514Z,12.77
2019-03-19T12:28:27.830Z,15.43
2019-03-19T12:31:00.196Z,15.30
2019-03-19T12:33:40.398Z,15.03
2019-03-19T12:36:06.591Z,18.50
2019-03-19T12:38:38.852Z,15.30
2019-03-19T12:41:11.312Z,15.77
2019-03-19T12:43:43.639Z,12.60
2019-03-19T12:46:15.909Z,14.20
2019-03-19T12:48:48.318Z,16.80
2019-03-19T12:51:20.703Z,13.43
2019-03-19T12:53:53.266Z,14.23
2019-03-19T12:56:26.769Z,15.07
2019-03-19T12:58:59.066Z,14.20
2019-03-19T13:01:31.594Z,16.10
2019-03-19T13:04:03.871Z,13.27
2019-03-19T13:06:36.129Z,15.60
2019-03-19T13:09:08.364Z,15.00
2019-03-19T13:11:40.999Z,19.80
2019-03-19T13:14:13.379Z,17.60
2019-03-19T13:16:45.657Z,15.37
2019-03-19T13:19:17.970Z,13.43
2019-03-19T13:21:50.216Z,15.93
2019-03-19T13:24:22.848Z,15.63
2019-03-19T13:26:55.226Z,15.57
2019-03-19T13:29:27.694Z,16.90
2019-03-19T13:32:00.277Z,16.20
2019-03-19T13:34:32.611Z,17.70
2019-03-19T13:37:06.123Z,18.47
2019-03-19T13:39:38.467Z,19.50
2019-03-19T13:42:10.687Z,17.67
2019-03-19T13:44:43.025Z,18.70
2019-03-19T13:47:15.331Z,16.47
2019-03-19T13:49:47.588Z,15.70
2019-03-19T13:52:19.837Z,15.93
2019-03-19T13:54:52.062Z,16.33
2019-03-19T13:57:25.561Z,12.70
2019-03-19T13:59:57.834Z,16.40
2019-03-19T14:02:30.043Z,17.90
2019-03-19T14:05:02.380Z,12.73
2019-03-19T14:07:34.902Z,13.23
2019-03-19T14:10:07.078Z,13.00
2019-03-19T14:12:39.627Z,20.57
2019-03-19T14:15:12.153Z,17.57
2019-03-19T14:17:44.371Z,15.23
2019-03-19T14:20:16.773Z,13.00
2019-03-19T14:22:49.018Z,21.53
2019-03-19T14:25:21.426Z,15.87
2019-03-19T14:27:53.719Z,25.10
2019-03-19T14:30:26.154Z,21.70
2019-03-19T14:32:58.359Z,16.67
2019-03-19T14:35:37.294Z,21.33
2019-03-19T14:38:05.004Z,18.03
2019-03-19T14:40:37.474Z,22.67
2019-03-19T14:43:10.818Z,16.70
2019-03-19T14:45:43.149Z,16.57
2019-03-19T14:48:15.476Z,17.67
2019-03-19T14:50:47.817Z,16.43
2019-03-19T14:53:20.114Z,22.40
2019-03-19T14:55:54.458Z,18.47
2019-03-19T14:58:27.103Z,14.17
2019-03-19T15:00:59.461Z,14.33
2019-03-19T15:03:32.703Z,17.47
2019-03-19T15:06:05.150Z,21.17
2019-03-19T15:08:38.013Z,16.70
2019-03-19T15:11:10.370Z,17.27
2019-03-19T15:13:42.734Z,14.47
2019-03-19T15:16:15.299Z,13.20
2019-03-19T15:18:48.090Z,16.17
2019-03-19T15:21:20.405Z,14.90
2019-03-19T15:23:52.912Z,19.80
2019-03-19T15:26:25.414Z,20.67
2019-03-19T15:28:57.986Z,14.23
2019-03-19T15:31:30.341Z,16.87
2019-03-19T15:34:03.008Z,14.30
2019-03-19T15:36:35.441Z,13.27
2019-03-19T15:39:08.175Z,18.63
2019-03-19T15:41:40.615Z,11.70
2019-03-19T15:44:15.375Z,10.60
2019-03-19T15:46:49.026Z,13.00
2019-03-19T15:49:21.548Z,13.03
2019-03-19T15:51:54.214Z,14.20
2019-03-19T15:54:26.838Z,13.80
2019-03-19T15:56:59.368Z,13.93
2019-03-19T15:59:31.765Z,12.23
2019-03-19T16:02:04.471Z,14.23
2019-03-19T16:04:37.003Z,14.97
2019-03-19T16:07:09.431Z,13.40
2019-03-19T16:09:41.964Z,13.40
2019-03-19T16:12:14.333Z,15.37
2019-03-19T16:14:46.867Z,13.87
2019-03-19T16:17:19.340Z,14.43
2019-03-19T16:19:51.835Z,10.73
2019-03-19T16:22:24.343Z,12.33
2019-03-19T16:24:56.583Z,9.60
2019-03-19T16:27:29.089Z,9.90
2019-03-19T16:30:01.499Z,14.00
2019-03-19T16:32:35.283Z,11.03
2019-03-19T16:35:07.689Z,11.90
2019-03-19T16:37:39.954Z,15.10
2019-03-19T16:40:12.325Z,14.73
2019-03-19T16:42:44.723Z,12.23
2019-03-19T16:45:18.594Z,11.53
2019-03-19T16:47:51.194Z,14.87
2019-03-19T16:50:23.580Z,14.60
2019-03-19T16:52:56.782Z,18.33
2019-03-19T16:55:29.315Z,15.37
2019-03-19T16:58:02.243Z,13.43
2019-03-19T17:00:34.551Z,13.57
2019-03-19T17:03:07.370Z,12.80
2019-03-19T17:05:39.862Z,15.80
2019-03-19T17:08:13.266Z,14.23
2019-03-19T17:10:45.607Z,17.20
2019-03-19T17:13:17.902Z,17.73
2019-03-19T17:15:50.309Z,19.37
2019-03-19T17:18:22.650Z,17.03
2019-03-19T17:20:57.060Z,18.93
2019-03-19T17:23:30.568Z,15.23
2019-03-19T17:26:02.881Z,16.87
2019-03-19T17:28:35.397Z,14.00
2019-03-19T17:31:07.694Z,13.17
2019-03-19T17:33:39.844Z,16.50
2019-03-19T17:36:12.341Z,11.53
2019-03-19T17:38:44.577Z,14.97
2019-03-19T17:41:16.677Z,14.77
2019-03-19T17:43:49.068Z,16.37
2019-03-19T17:46:21.298Z,18.07
2019-03-19T17:48:53.551Z,17.30
2019-03-19T17:51:25.817Z,20.33
2019-03-19T17:53:57.935Z,17.10
2019-03-19T17:56:48.385Z,16.00
2019-03-19T17:59:20.901Z,16.33
2019-03-19T18:01:53.257Z,15.90
2019-03-19T18:04:25.469Z,17.73
2019-03-19T18:06:58.870Z,18.00
2019-03-19T18:09:31.181Z,17.40
2019-03-19T18:12:03.393Z,17.43
2019-03-19T18:14:37.560Z,17.80
2019-03-19T18:17:10.976Z,17.57
2019-03-19T18:19:43.373Z,16.57
2019-03-19T18:22:15.638Z,17.57
2019-03-19T18:24:47.904Z,15.33
2019-03-19T18:27:20.130Z,19.20
2019-03-19T18:29:52.471Z,13.73
2019-03-19T18:32:34.657Z,17.47
2019-03-19T18:34:58.980Z,14.33
2019-03-19T18:37:31.244Z,14.90
2019-03-19T18:40:03.504Z,18.57
2019-03-19T18:42:35.813Z,17.40
2019-03-19T18:45:08.293Z,16.53
2019-03-19T18:47:40.652Z,15.57
2019-03-19T18:50:12.910Z,18.13
2019-03-19T18:52:45.180Z,16.47
2019-03-19T18:55:17.429Z,17.40
2019-03-19T18:57:49.724Z,18.37
2019-03-19T19:00:22.051Z,15.87
2019-03-19T19:02:54.274Z,16.13
2019-03-19T19:05:26.597Z,17.63
2019-03-19T19:07:59.247Z,15.53
2019-03-19T19:10:31.474Z,13.90
2019-03-19T19:13:03.700Z,18.07
2019-03-19T19:15:35.961Z,22.70
2019-03-19T19:18:08.195Z,18.93
2019-03-19T19:20:41.821Z,18.27
2019-03-19T19:23:14.284Z,17.30
2019-03-19T19:25:46.560Z,15.37
2019-03-19T19:28:18.772Z,17.07
2019-03-19T19:30:51.022Z,17.07
2019-03-19T19:33:23.459Z,14.73
2019-03-19T19:35:55.691Z,15.07
2019-03-19T19:38:28.162Z,20.47
2019-03-19T19:41:00.780Z,20.40
2019-03-19T19:43:33.039Z,18.70
2019-03-19T19:46:05.291Z,19.73
2019-03-19T19:48:38.731Z,18.93
2019-03-19T19:51:10.771Z,18.10
2019-03-19T19:53:43.093Z,19.37
2019-03-19T19:56:15.382Z,18.10
2019-03-19T19:58:47.718Z,16.70
2019-03-19T20:01:19.989Z,14.57
2019-03-19T20:03:52.054Z,18.33
2019-03-19T20:06:24.399Z,15.90
2019-03-19T20:08:56.799Z,14.90
2019-03-19T20:11:29.140Z,18.40
2019-03-19T20:14:01.406Z,20.67
2019-03-19T20:16:33.646Z,17.20
2019-03-19T20:19:05.869Z,19.93
2019-03-19T20:21:38.142Z,17.20
2019-03-19T20:24:10.527Z,16.63
2019-03-19T20:26:43.507Z,14.30
2019-03-19T20:29:15.919Z,23.83
2019-03-19T20:31:52.286Z,18.73
2019-03-19T20:34:24.577Z,19.90
2019-03-19T20:36:56.932Z,20.33
2019-03-19T20:39:29.310Z,18.67
2019-03-19T20:42:01.738Z,13.97
2019-03-19T20:44:34.033Z,16.97
2019-03-19T20:47:06.357Z,19.23
2019-03-19T20:49:47.323Z,16.00
2019-03-19T20:52:12.669Z,18.10
2019-03-19T20:54:44.925Z,14.57
2019-03-19T20:57:17.282Z,16.77
2019-03-19T20:59:49.795Z,15.30
2019-03-19T21:02:22.132Z,19.13
2019-03-19T21:04:54.328Z,21.17
2019-03-19T21:07:27.752Z,19.50
2019-03-19T21:09:59.873Z,16.93
2019-03-19T21:12:32.399Z,18.93
2019-03-19T21:15:04.724Z,20.83
2019-03-19T21:17:37.222Z,21.47
2019-03-19T21:20:09.620Z,21.67
2019-03-19T21:22:41.965Z,22.40
2019-03-19T21:25:14.294Z,22.73
2019-03-19T21:27:47.753Z,19.77
2019-03-19T21:30:20.006Z,20.40
2019-03-19T21:32:52.284Z,18.37
2019-03-19T21:35:24.589Z,18.17
2019-03-19T21:37:57.932Z,20.60
2019-03-19T21:40:30.242Z,24.30
2019-03-19T21:43:02.410Z,24.83
2019-03-19T21:45:34.687Z,22.83
2019-03-19T21:48:07.206Z,21.03
2019-03-19T21:50:39.518Z,25.60
2019-03-19T21:53:11.784Z,25.17
2019-03-19T21:55:44.125Z,22.57
2019-03-19T21:58:16.532Z,24.13
2019-03-19T22:00:48.659Z,22.93
2019-03-19T22:03:21.122Z,29.87
2019-03-19T22:05:53.551Z,28.30
2019-03-19T22:08:26.193Z,29.60
2019-03-19T22:10:58.619Z,31.73
2019-03-19T22:13:30.831Z,26.53
2019-03-19T22:16:03.152Z,25.00
2019-03-19T22:18:35.612Z,27.40
2019-03-19T22:21:07.977Z,26.10
2019-03-19T22:23:41.949Z,28.13
2019-03-19T22:26:14.300Z,31.37
2019-03-19T22:28:46.593Z,31.30
2019-03-19T22:31:18.852Z,26.67
2019-03-19T22:33:52.112Z,35.33
2019-03-19T22:36:24.591Z,31.93
2019-03-19T22:38:56.954Z,33.03
2019-03-19T22:41:29.443Z,29.17
2019-03-19T22:44:01.781Z,28.63
2019-03-19T22:46:34.117Z,25.57
2019-03-19T22:49:06.426Z,31.33
2019-03-19T22:51:38.804Z,32.67
2019-03-19T22:54:11.186Z,32.90
2019-03-19T22:56:43.524Z,27.57
2019-03-19T22:59:15.799Z,29.67
2019-03-19T23:01:48.037Z,29.27
2019-03-19T23:04:27.134Z,31.40
2019-03-19T23:06:55.374Z,28.03
2019-03-19T23:09:27.760Z,30.83
2019-03-19T23:12:00.159Z,28.43
2019-03-19T23:14:33.737Z,32.13
2019-03-19T23:17:07.411Z,28.23
2019-03-19T23:19:39.874Z,26.93
2019-03-19T23:22:12.100Z,35.57
2019-03-19T23:24:44.153Z,33.27
2019-03-19T23:27:16.529Z,34.57
2019-03-19T23:29:49.308Z,33.03
2019-03-19T23:32:24.770Z,30.80
2019-03-19T23:34:56.547Z,32.50
2019-03-19T23:37:29.462Z,37.50
2019-03-19T23:40:02.318Z,35.77
2019-03-19T23:42:36.158Z,29.73
2019-03-19T23:45:08.600Z,31.27
2019-03-19T23:47:40.884Z,31.93
2019-03-19T23:50:13.082Z,28.83
2019-03-19T23:52:45.675Z,32.90
2019-03-19T23:55:19.043Z,27.53
2019-03-19T23:57:51.807Z,27.73
